sensor_id;sensor_type;location;lat;lon;timestamp;P1;durP1;ratioP1;P2;durP2;ratioP2
16600;SDS011;34891;48.164;11.572;2023-03-11T00:04:05;0.52;;;0.52;;
16600;SDS011;34891;48.164;11.572;2023-03-11T00:09:26;1.17;;;0.50;;
16600;SDS011;34891;48.164;11.572;2023-03-11T00:14:36;0.57;;;0.57;;
16600;SDS011;34891;48.164;11.572;2023-03-11T00:19:46;2.07;;;0.87;;
16600;SDS011;34891;48.164;11.572;2023-03-11T00:24:58;1.27;;;0.73;;
16600;SDS011;34891;48.164;11.572;2023-03-11T00:35:45;0.55;;;0.50;;
16600;SDS011;34891;48.164;11.572;2023-03-11T00:40:56;1.20;;;0.63;;
16600;SDS011;34891;48.164;11.572;2023-03-11T00:46:05;1.43;;;0.57;;
16600;SDS011;34891;48.164;11.572;2023-03-11T00:56:49;1.05;;;0.50;;
16600;SDS011;34891;48.164;11.572;2023-03-11T01:02:00;0.40;;;0.40;;
16600;SDS011;34891;48.164;11.572;2023-03-11T01:07:29;0.23;;;0.23;;
16600;SDS011;34891;48.164;11.572;2023-03-11T01:12:52;1.43;;;0.50;;
16600;SDS011;34891;48.164;11.572;2023-03-11T01:17:57;1.00;;;0.73;;
16600;SDS011;34891;48.164;11.572;2023-03-11T01:23:04;0.83;;;0.73;;
16600;SDS011;34891;48.164;11.572;2023-03-11T01:33:46;1.30;;;0.80;;
16600;SDS011;34891;48.164;11.572;2023-03-11T01:39:15;1.30;;;0.70;;
16600;SDS011;34891;48.164;11.572;2023-03-11T01:44:23;2.47;;;0.67;;
16600;SDS011;34891;48.164;11.572;2023-03-11T01:49:50;0.97;;;0.87;;
16600;SDS011;34891;48.164;11.572;2023-03-11T01:54:58;1.83;;;0.63;;
16600;SDS011;34891;48.164;11.572;2023-03-11T02:00:13;0.27;;;0.27;;
16600;SDS011;34891;48.164;11.572;2023-03-11T02:05:24;0.57;;;0.57;;
16600;SDS011;34891;48.164;11.572;2023-03-11T02:10:31;0.47;;;0.47;;
16600;SDS011;34891;48.164;11.572;2023-03-11T02:16:16;0.40;;;0.40;;
16600;SDS011;34891;48.164;11.572;2023-03-11T02:21:25;1.23;;;0.70;;
16600;SDS011;34891;48.164;11.572;2023-03-11T02:26:38;0.60;;;0.60;;
16600;SDS011;34891;48.164;11.572;2023-03-11T02:31:53;0.60;;;0.60;;
16600;SDS011;34891;48.164;11.572;2023-03-11T02:36:57;1.47;;;0.70;;
16600;SDS011;34891;48.164;11.572;2023-03-11T02:42:33;0.33;;;0.33;;
16600;SDS011;34891;48.164;11.572;2023-03-11T02:48:13;0.50;;;0.47;;
16600;SDS011;34891;48.164;11.572;2023-03-11T02:53:38;0.70;;;0.60;;
16600;SDS011;34891;48.164;11.572;2023-03-11T02:58:48;0.57;;;0.50;;
16600;SDS011;34891;48.164;11.572;2023-03-11T03:04:12;1.43;;;0.70;;
16600;SDS011;34891;48.164;11.572;2023-03-11T03:09:38;1.03;;;0.70;;
16600;SDS011;34891;48.164;11.572;2023-03-11T03:25:46;1.03;;;0.57;;
16600;SDS011;34891;48.164;11.572;2023-03-11T03:31:02;0.97;;;0.73;;
16600;SDS011;34891;48.164;11.572;2023-03-11T03:36:14;0.73;;;0.60;;
16600;SDS011;34891;48.164;11.572;2023-03-11T03:41:32;0.27;;;0.20;;
16600;SDS011;34891;48.164;11.572;2023-03-11T03:47:02;0.50;;;0.30;;
16600;SDS011;34891;48.164;11.572;2023-03-11T03:57:39;0.30;;;0.27;;
16600;SDS011;34891;48.164;11.572;2023-03-11T04:03:00;4.47;;;0.50;;
16600;SDS011;34891;48.164;11.572;2023-03-11T04:08:28;0.30;;;0.30;;
16600;SDS011;34891;48.164;11.572;2023-03-11T04:13:48;0.63;;;0.40;;
16600;SDS011;34891;48.164;11.572;2023-03-11T04:19:05;0.60;;;0.53;;
16600;SDS011;34891;48.164;11.572;2023-03-11T04:24:16;0.43;;;0.23;;
16600;SDS011;34891;48.164;11.572;2023-03-11T04:29:43;0.30;;;0.30;;
16600;SDS011;34891;48.164;11.572;2023-03-11T04:34:51;0.43;;;0.40;;
16600;SDS011;34891;48.164;11.572;2023-03-11T04:40:16;0.45;;;0.40;;
16600;SDS011;34891;48.164;11.572;2023-03-11T04:45:40;2.33;;;0.43;;
16600;SDS011;34891;48.164;11.572;2023-03-11T04:50:53;2.13;;;0.80;;
16600;SDS011;34891;48.164;11.572;2023-03-11T04:56:04;0.10;;;0.10;;
16600;SDS011;34891;48.164;11.572;2023-03-11T05:06:50;0.33;;;0.30;;
16600;SDS011;34891;48.164;11.572;2023-03-11T05:12:08;0.53;;;0.40;;
16600;SDS011;34891;48.164;11.572;2023-03-11T05:17:27;1.03;;;0.57;;
16600;SDS011;34891;48.164;11.572;2023-03-11T05:22:39;0.83;;;0.60;;
16600;SDS011;34891;48.164;11.572;2023-03-11T05:27:49;1.10;;;0.80;;
16600;SDS011;34891;48.164;11.572;2023-03-11T05:32:57;0.93;;;0.77;;
16600;SDS011;34891;48.164;11.572;2023-03-11T05:38:05;1.40;;;0.90;;
16600;SDS011;34891;48.164;11.572;2023-03-11T05:43:27;0.85;;;0.35;;
16600;SDS011;34891;48.164;11.572;2023-03-11T05:48:41;1.10;;;0.53;;
16600;SDS011;34891;48.164;11.572;2023-03-11T05:54:00;1.60;;;0.70;;
16600;SDS011;34891;48.164;11.572;2023-03-11T05:59:19;2.43;;;0.87;;
16600;SDS011;34891;48.164;11.572;2023-03-11T06:04:26;0.80;;;0.70;;
16600;SDS011;34891;48.164;11.572;2023-03-11T06:09:44;0.93;;;0.80;;
16600;SDS011;34891;48.164;11.572;2023-03-11T06:14:54;0.83;;;0.63;;
16600;SDS011;34891;48.164;11.572;2023-03-11T06:20:22;2.40;;;0.50;;
16600;SDS011;34891;48.164;11.572;2023-03-11T06:25:44;0.60;;;0.60;;
16600;SDS011;34891;48.164;11.572;2023-03-11T06:31:08;2.37;;;1.10;;
16600;SDS011;34891;48.164;11.572;2023-03-11T06:36:28;0.67;;;0.43;;
16600;SDS011;34891;48.164;11.572;2023-03-11T06:41:42;1.47;;;0.60;;
16600;SDS011;34891;48.164;11.572;2023-03-11T06:46:49;1.30;;;0.90;;
16600;SDS011;34891;48.164;11.572;2023-03-11T06:52:01;3.03;;;0.90;;
16600;SDS011;34891;48.164;11.572;2023-03-11T06:57:15;1.83;;;1.03;;
16600;SDS011;34891;48.164;11.572;2023-03-11T07:02:29;1.47;;;1.00;;
16600;SDS011;34891;48.164;11.572;2023-03-11T07:07:54;1.20;;;0.95;;
16600;SDS011;34891;48.164;11.572;2023-03-11T07:13:02;0.85;;;0.60;;
16600;SDS011;34891;48.164;11.572;2023-03-11T07:18:23;1.00;;;0.90;;
16600;SDS011;34891;48.164;11.572;2023-03-11T07:23:55;1.05;;;0.63;;
16600;SDS011;34891;48.164;11.572;2023-03-11T07:28:59;1.27;;;1.08;;
16600;SDS011;34891;48.164;11.572;2023-03-11T07:34:02;2.78;;;0.60;;
16600;SDS011;34891;48.164;11.572;2023-03-11T07:39:10;0.77;;;0.77;;
16600;SDS011;34891;48.164;11.572;2023-03-11T07:44:14;2.47;;;1.50;;
16600;SDS011;34891;48.164;11.572;2023-03-11T07:49:17;1.92;;;1.48;;
16600;SDS011;34891;48.164;11.572;2023-03-11T07:54:22;1.92;;;1.33;;
16600;SDS011;34891;48.164;11.572;2023-03-11T07:59:26;3.10;;;1.35;;
16600;SDS011;34891;48.164;11.572;2023-03-11T08:09:34;1.80;;;1.63;;
16600;SDS011;34891;48.164;11.572;2023-03-11T08:14:37;4.20;;;2.00;;
16600;SDS011;34891;48.164;11.572;2023-03-11T08:19:41;3.55;;;1.63;;
16600;SDS011;34891;48.164;11.572;2023-03-11T08:29:48;3.70;;;1.60;;
16600;SDS011;34891;48.164;11.572;2023-03-11T08:34:51;6.43;;;2.80;;
16600;SDS011;34891;48.164;11.572;2023-03-11T08:39:54;3.17;;;1.50;;
16600;SDS011;34891;48.164;11.572;2023-03-11T08:44:58;1.30;;;1.20;;
16600;SDS011;34891;48.164;11.572;2023-03-11T08:50:03;3.13;;;1.30;;
16600;SDS011;34891;48.164;11.572;2023-03-11T08:55:07;9.35;;;3.70;;
16600;SDS011;34891;48.164;11.572;2023-03-11T09:00:14;4.25;;;1.45;;
16600;SDS011;34891;48.164;11.572;2023-03-11T09:05:16;2.30;;;1.10;;
16600;SDS011;34891;48.164;11.572;2023-03-11T09:10:19;3.25;;;0.98;;
16600;SDS011;34891;48.164;11.572;2023-03-11T09:15:25;1.30;;;1.20;;
16600;SDS011;34891;48.164;11.572;2023-03-11T09:20:28;3.03;;;1.92;;
16600;SDS011;34891;48.164;11.572;2023-03-11T09:30:39;1.83;;;1.60;;
16600;SDS011;34891;48.164;11.572;2023-03-11T09:35:41;2.88;;;1.95;;
16600;SDS011;34891;48.164;11.572;2023-03-11T09:40:53;1.98;;;1.50;;
16600;SDS011;34891;48.164;11.572;2023-03-11T09:46:01;1.35;;;1.00;;
16600;SDS011;34891;48.164;11.572;2023-03-11T09:51:08;2.08;;;1.85;;
16600;SDS011;34891;48.164;11.572;2023-03-11T09:56:14;1.88;;;1.10;;
16600;SDS011;34891;48.164;11.572;2023-03-11T10:01:22;2.63;;;1.08;;
16600;SDS011;34891;48.164;11.572;2023-03-11T10:06:27;1.70;;;1.60;;
16600;SDS011;34891;48.164;11.572;2023-03-11T10:11:36;1.58;;;1.52;;
16600;SDS011;34891;48.164;11.572;2023-03-11T10:16:48;2.15;;;1.80;;
16600;SDS011;34891;48.164;11.572;2023-03-11T10:22:01;3.00;;;1.00;;
16600;SDS011;34891;48.164;11.572;2023-03-11T10:27:18;2.67;;;1.27;;
16600;SDS011;34891;48.164;11.572;2023-03-11T10:32:35;1.20;;;0.80;;
16600;SDS011;34891;48.164;11.572;2023-03-11T10:37:41;0.85;;;0.85;;
16600;SDS011;34891;48.164;11.572;2023-03-11T10:42:50;1.90;;;1.80;;
16600;SDS011;34891;48.164;11.572;2023-03-11T10:47:56;2.00;;;1.27;;
16600;SDS011;34891;48.164;11.572;2023-03-11T10:53:06;1.98;;;1.70;;
16600;SDS011;34891;48.164;11.572;2023-03-11T10:58:10;2.40;;;0.95;;
16600;SDS011;34891;48.164;11.572;2023-03-11T11:03:19;2.15;;;0.90;;
16600;SDS011;34891;48.164;11.572;2023-03-11T11:08:23;2.55;;;1.30;;
16600;SDS011;34891;48.164;11.572;2023-03-11T11:13:26;3.53;;;1.25;;
16600;SDS011;34891;48.164;11.572;2023-03-11T11:18:33;1.33;;;1.23;;
16600;SDS011;34891;48.164;11.572;2023-03-11T11:23:38;3.30;;;1.60;;
16600;SDS011;34891;48.164;11.572;2023-03-11T11:28:43;2.67;;;1.40;;
16600;SDS011;34891;48.164;11.572;2023-03-11T11:33:49;2.72;;;1.40;;
16600;SDS011;34891;48.164;11.572;2023-03-11T11:38:53;2.50;;;1.50;;
16600;SDS011;34891;48.164;11.572;2023-03-11T11:43:57;1.55;;;1.17;;
16600;SDS011;34891;48.164;11.572;2023-03-11T11:49:06;2.72;;;1.60;;
16600;SDS011;34891;48.164;11.572;2023-03-11T11:54:13;2.15;;;1.15;;
16600;SDS011;34891;48.164;11.572;2023-03-11T11:59:18;1.58;;;1.48;;
16600;SDS011;34891;48.164;11.572;2023-03-11T12:04:34;1.63;;;1.50;;
16600;SDS011;34891;48.164;11.572;2023-03-11T12:09:43;2.20;;;1.80;;
16600;SDS011;34891;48.164;11.572;2023-03-11T12:14:53;2.17;;;1.60;;
16600;SDS011;34891;48.164;11.572;2023-03-11T12:20:04;5.43;;;1.80;;
16600;SDS011;34891;48.164;11.572;2023-03-11T12:25:23;2.13;;;1.60;;
16600;SDS011;34891;48.164;11.572;2023-03-11T12:30:29;1.70;;;1.60;;
16600;SDS011;34891;48.164;11.572;2023-03-11T12:35:34;2.25;;;1.60;;
16600;SDS011;34891;48.164;11.572;2023-03-11T12:40:41;1.60;;;1.50;;
16600;SDS011;34891;48.164;11.572;2023-03-11T12:45:48;1.92;;;1.50;;
16600;SDS011;34891;48.164;11.572;2023-03-11T12:50:53;1.77;;;1.58;;
16600;SDS011;34891;48.164;11.572;2023-03-11T12:55:59;1.25;;;1.10;;
16600;SDS011;34891;48.164;11.572;2023-03-11T13:01:16;2.88;;;1.70;;
16600;SDS011;34891;48.164;11.572;2023-03-11T13:11:44;2.15;;;1.55;;
16600;SDS011;34891;48.164;11.572;2023-03-11T13:16:47;3.20;;;1.38;;
16600;SDS011;34891;48.164;11.572;2023-03-11T13:21:50;3.38;;;1.60;;
16600;SDS011;34891;48.164;11.572;2023-03-11T13:26:54;2.20;;;1.60;;
16600;SDS011;34891;48.164;11.572;2023-03-11T13:32:01;1.65;;;1.42;;
16600;SDS011;34891;48.164;11.572;2023-03-11T13:37:12;2.40;;;1.50;;
16600;SDS011;34891;48.164;11.572;2023-03-11T13:42:31;4.20;;;1.60;;
16600;SDS011;34891;48.164;11.572;2023-03-11T13:47:35;1.42;;;1.33;;
16600;SDS011;34891;48.164;11.572;2023-03-11T13:52:41;1.90;;;1.65;;
16600;SDS011;34891;48.164;11.572;2023-03-11T13:57:49;2.70;;;1.23;;
16600;SDS011;34891;48.164;11.572;2023-03-11T14:02:53;3.17;;;1.30;;
16600;SDS011;34891;48.164;11.572;2023-03-11T14:08:09;2.50;;;1.45;;
16600;SDS011;34891;48.164;11.572;2023-03-11T14:13:15;2.58;;;1.40;;
16600;SDS011;34891;48.164;11.572;2023-03-11T14:18:33;1.95;;;1.55;;
16600;SDS011;34891;48.164;11.572;2023-03-11T14:23:40;2.80;;;1.60;;
16600;SDS011;34891;48.164;11.572;2023-03-11T14:28:47;1.88;;;1.50;;
16600;SDS011;34891;48.164;11.572;2023-03-11T14:33:54;2.35;;;1.40;;
16600;SDS011;34891;48.164;11.572;2023-03-11T14:38:59;2.30;;;1.30;;
16600;SDS011;34891;48.164;11.572;2023-03-11T14:44:04;2.17;;;1.33;;
16600;SDS011;34891;48.164;11.572;2023-03-11T14:49:07;1.25;;;1.15;;
16600;SDS011;34891;48.164;11.572;2023-03-11T14:54:17;3.20;;;1.48;;
16600;SDS011;34891;48.164;11.572;2023-03-11T14:59:24;1.98;;;1.33;;
16600;SDS011;34891;48.164;11.572;2023-03-11T15:04:29;2.80;;;1.23;;
16600;SDS011;34891;48.164;11.572;2023-03-11T15:09:33;3.83;;;1.50;;
16600;SDS011;34891;48.164;11.572;2023-03-11T15:14:51;3.33;;;1.63;;
16600;SDS011;34891;48.164;11.572;2023-03-11T15:19:54;2.10;;;1.40;;
16600;SDS011;34891;48.164;11.572;2023-03-11T15:24:58;4.93;;;1.60;;
16600;SDS011;34891;48.164;11.572;2023-03-11T15:30:03;2.70;;;1.30;;
16600;SDS011;34891;48.164;11.572;2023-03-11T15:35:12;1.83;;;1.52;;
16600;SDS011;34891;48.164;11.572;2023-03-11T15:40:20;1.92;;;1.30;;
16600;SDS011;34891;48.164;11.572;2023-03-11T15:45:34;1.95;;;1.20;;
16600;SDS011;34891;48.164;11.572;2023-03-11T15:50:45;1.90;;;1.52;;
16600;SDS011;34891;48.164;11.572;2023-03-11T15:55:55;2.03;;;1.30;;
16600;SDS011;34891;48.164;11.572;2023-03-11T16:01:10;1.65;;;1.23;;
16600;SDS011;34891;48.164;11.572;2023-03-11T16:06:12;3.67;;;1.67;;
16600;SDS011;34891;48.164;11.572;2023-03-11T16:11:16;2.60;;;1.00;;
16600;SDS011;34891;48.164;11.572;2023-03-11T16:16:20;3.83;;;1.65;;
16600;SDS011;34891;48.164;11.572;2023-03-11T16:21:26;3.58;;;1.60;;
16600;SDS011;34891;48.164;11.572;2023-03-11T16:26:31;3.42;;;1.60;;
16600;SDS011;34891;48.164;11.572;2023-03-11T16:31:37;5.47;;;1.48;;
16600;SDS011;34891;48.164;11.572;2023-03-11T16:36:47;2.90;;;2.03;;
16600;SDS011;34891;48.164;11.572;2023-03-11T16:42:00;2.05;;;1.30;;
16600;SDS011;34891;48.164;11.572;2023-03-11T16:47:05;4.85;;;2.00;;
16600;SDS011;34891;48.164;11.572;2023-03-11T16:52:08;2.00;;;1.50;;
16600;SDS011;34891;48.164;11.572;2023-03-11T16:57:11;2.03;;;1.83;;
16600;SDS011;34891;48.164;11.572;2023-03-11T17:02:16;2.97;;;1.70;;
16600;SDS011;34891;48.164;11.572;2023-03-11T17:07:19;2.05;;;1.42;;
16600;SDS011;34891;48.164;11.572;2023-03-11T17:12:24;3.90;;;1.60;;
16600;SDS011;34891;48.164;11.572;2023-03-11T17:17:29;2.57;;;1.47;;
16600;SDS011;34891;48.164;11.572;2023-03-11T17:22:32;2.85;;;1.50;;
16600;SDS011;34891;48.164;11.572;2023-03-11T17:27:35;4.90;;;1.88;;
16600;SDS011;34891;48.164;11.572;2023-03-11T17:32:39;2.33;;;1.40;;
16600;SDS011;34891;48.164;11.572;2023-03-11T17:37:42;2.70;;;1.50;;
16600;SDS011;34891;48.164;11.572;2023-03-11T17:42:45;4.35;;;1.40;;
16600;SDS011;34891;48.164;11.572;2023-03-11T17:47:50;4.77;;;2.03;;
16600;SDS011;34891;48.164;11.572;2023-03-11T17:52:53;2.50;;;1.65;;
16600;SDS011;34891;48.164;11.572;2023-03-11T17:57:58;2.60;;;1.70;;
16600;SDS011;34891;48.164;11.572;2023-03-11T18:03:02;6.45;;;2.90;;
16600;SDS011;34891;48.164;11.572;2023-03-11T18:08:05;3.38;;;1.77;;
16600;SDS011;34891;48.164;11.572;2023-03-11T18:13:08;2.75;;;1.50;;
16600;SDS011;34891;48.164;11.572;2023-03-11T18:18:12;6.85;;;2.45;;
16600;SDS011;34891;48.164;11.572;2023-03-11T18:23:16;3.40;;;1.70;;
16600;SDS011;34891;48.164;11.572;2023-03-11T18:28:19;2.00;;;1.37;;
16600;SDS011;34891;48.164;11.572;2023-03-11T18:33:23;4.22;;;1.50;;
16600;SDS011;34891;48.164;11.572;2023-03-11T18:38:27;2.38;;;1.42;;
16600;SDS011;34891;48.164;11.572;2023-03-11T18:43:29;3.58;;;1.80;;
16600;SDS011;34891;48.164;11.572;2023-03-11T18:48:33;8.05;;;3.30;;
16600;SDS011;34891;48.164;11.572;2023-03-11T18:53:36;4.78;;;2.00;;
16600;SDS011;34891;48.164;11.572;2023-03-11T18:58:41;2.92;;;1.60;;
16600;SDS011;34891;48.164;11.572;2023-03-11T19:03:47;2.58;;;1.58;;
16600;SDS011;34891;48.164;11.572;2023-03-11T19:08:51;10.10;;;3.30;;
16600;SDS011;34891;48.164;11.572;2023-03-11T19:13:54;4.83;;;2.23;;
16600;SDS011;34891;48.164;11.572;2023-03-11T19:18:58;13.53;;;4.73;;
16600;SDS011;34891;48.164;11.572;2023-03-11T19:24:02;4.87;;;1.97;;
16600;SDS011;34891;48.164;11.572;2023-03-11T19:29:04;4.07;;;2.17;;
16600;SDS011;34891;48.164;11.572;2023-03-11T19:34:08;3.83;;;2.00;;
16600;SDS011;34891;48.164;11.572;2023-03-11T19:39:12;6.23;;;2.70;;
16600;SDS011;34891;48.164;11.572;2023-03-11T19:44:15;5.43;;;2.70;;
16600;SDS011;34891;48.164;11.572;2023-03-11T19:49:20;7.13;;;2.80;;
16600;SDS011;34891;48.164;11.572;2023-03-11T19:54:24;6.57;;;3.08;;
16600;SDS011;34891;48.164;11.572;2023-03-11T19:59:36;4.10;;;2.33;;
16600;SDS011;34891;48.164;11.572;2023-03-11T20:04:42;4.43;;;2.00;;
16600;SDS011;34891;48.164;11.572;2023-03-11T20:09:44;8.40;;;3.28;;
16600;SDS011;34891;48.164;11.572;2023-03-11T20:14:48;13.03;;;4.17;;
16600;SDS011;34891;48.164;11.572;2023-03-11T20:19:52;6.60;;;2.40;;
16600;SDS011;34891;48.164;11.572;2023-03-11T20:24:54;7.05;;;3.33;;
16600;SDS011;34891;48.164;11.572;2023-03-11T20:29:57;6.27;;;2.67;;
16600;SDS011;34891;48.164;11.572;2023-03-11T20:35:01;4.47;;;1.90;;
16600;SDS011;34891;48.164;11.572;2023-03-11T20:40:05;4.47;;;2.22;;
16600;SDS011;34891;48.164;11.572;2023-03-11T20:45:08;6.13;;;2.53;;
16600;SDS011;34891;48.164;11.572;2023-03-11T20:50:12;7.77;;;2.20;;
16600;SDS011;34891;48.164;11.572;2023-03-11T21:05:33;4.90;;;1.57;;
16600;SDS011;34891;48.164;11.572;2023-03-11T21:10:40;6.57;;;2.17;;
16600;SDS011;34891;48.164;11.572;2023-03-11T21:15:51;4.67;;;1.83;;
16600;SDS011;34891;48.164;11.572;2023-03-11T21:21:19;16.03;;;4.70;;
16600;SDS011;34891;48.164;11.572;2023-03-11T21:26:44;14.20;;;4.83;;
16600;SDS011;34891;48.164;11.572;2023-03-11T21:32:01;6.83;;;2.00;;
16600;SDS011;34891;48.164;11.572;2023-03-11T21:37:08;5.70;;;2.10;;
16600;SDS011;34891;48.164;11.572;2023-03-11T21:42:27;7.73;;;1.90;;
16600;SDS011;34891;48.164;11.572;2023-03-11T21:47:43;2.97;;;1.50;;
16600;SDS011;34891;48.164;11.572;2023-03-11T21:58:37;5.00;;;1.70;;
16600;SDS011;34891;48.164;11.572;2023-03-11T22:03:55;1.20;;;0.87;;
16600;SDS011;34891;48.164;11.572;2023-03-11T22:09:13;1.23;;;0.93;;
16600;SDS011;34891;48.164;11.572;2023-03-11T22:14:41;0.73;;;0.70;;
16600;SDS011;34891;48.164;11.572;2023-03-11T22:19:53;3.73;;;1.60;;
16600;SDS011;34891;48.164;11.572;2023-03-11T22:25:10;4.70;;;1.50;;
16600;SDS011;34891;48.164;11.572;2023-03-11T22:30:28;4.60;;;1.43;;
16600;SDS011;34891;48.164;11.572;2023-03-11T22:35:48;3.87;;;1.80;;
16600;SDS011;34891;48.164;11.572;2023-03-11T22:41:11;4.83;;;1.90;;
16600;SDS011;34891;48.164;11.572;2023-03-11T22:46:30;6.90;;;1.90;;
16600;SDS011;34891;48.164;11.572;2023-03-11T22:51:55;3.25;;;1.58;;
16600;SDS011;34891;48.164;11.572;2023-03-11T22:57:15;3.47;;;1.37;;
16600;SDS011;34891;48.164;11.572;2023-03-11T23:07:27;4.43;;;1.30;;
16600;SDS011;34891;48.164;11.572;2023-03-11T23:13:02;3.53;;;1.40;;
16600;SDS011;34891;48.164;11.572;2023-03-11T23:18:21;2.27;;;1.40;;
16600;SDS011;34891;48.164;11.572;2023-03-11T23:23:53;4.70;;;1.10;;
16600;SDS011;34891;48.164;11.572;2023-03-11T23:29:11;2.07;;;0.90;;
16600;SDS011;34891;48.164;11.572;2023-03-11T23:34:34;3.23;;;0.93;;
16600;SDS011;34891;48.164;11.572;2023-03-11T23:39:44;7.13;;;2.33;;
16600;SDS011;34891;48.164;11.572;2023-03-11T23:44:52;6.37;;;1.93;;
16600;SDS011;34891;48.164;11.572;2023-03-11T23:49:58;5.03;;;2.20;;
16600;SDS011;34891;48.164;11.572;2023-03-11T23:55:11;5.43;;;2.17;;
